createdAt,value
2017-09-26T00:00:04.633Z,1010.6
2017-09-26T00:01:06.241Z,1010.6
2017-09-26T00:02:07.850Z,1010.6
2017-09-26T00:03:09.460Z,1010.6
2017-09-26T00:04:11.074Z,1010.6
2017-09-26T00:05:12.686Z,1010.6
2017-09-26T00:06:14.297Z,1010.6
2017-09-26T00:07:15.910Z,1010.6
2017-09-26T00:08:17.517Z,1010.6
2017-09-26T00:09:19.133Z,1010.6
2017-09-26T00:10:20.741Z,1010.6
2017-09-26T00:11:22.356Z,1010.6
2017-09-26T00:12:23.964Z,1010.6
2017-09-26T00:13:25.580Z,1010.6
2017-09-26T00:14:27.187Z,1010.6
2017-09-26T00:15:28.801Z,1010.6
2017-09-26T00:16:30.414Z,1010.6
2017-09-26T00:17:32.028Z,1010.5
2017-09-26T00:18:33.634Z,1010.6
2017-09-26T00:19:35.240Z,1010.5
2017-09-26T00:20:36.857Z,1010.5
2017-09-26T00:21:38.462Z,1010.5
2017-09-26T00:22:40.072Z,1010.5
2017-09-26T00:23:41.686Z,1010.5
2017-09-26T00:24:43.299Z,1010.5
2017-09-26T00:25:44.908Z,1010.5
2017-09-26T00:26:46.517Z,1010.5
2017-09-26T00:27:48.134Z,1010.5
2017-09-26T00:28:49.747Z,1010.6
2017-09-26T00:29:51.354Z,1010.6
2017-09-26T00:30:52.969Z,1010.6
2017-09-26T00:31:54.577Z,1010.6
2017-09-26T00:32:56.185Z,1010.6
2017-09-26T00:33:57.802Z,1010.5
2017-09-26T00:34:59.412Z,1010.5
2017-09-26T00:36:01.024Z,1010.5
2017-09-26T00:37:02.632Z,1010.5
2017-09-26T00:38:04.248Z,1010.5
2017-09-26T00:39:05.856Z,1010.5
2017-09-26T00:40:07.474Z,1010.4
2017-09-26T00:41:09.086Z,1010.4
2017-09-26T00:42:10.698Z,1010.4
2017-09-26T00:43:12.305Z,1010.4
2017-09-26T00:44:13.924Z,1010.4
2017-09-26T00:45:15.532Z,1010.3
2017-09-26T00:46:17.138Z,1010.3
2017-09-26T00:47:18.751Z,1010.3
2017-09-26T00:48:20.365Z,1010.3
2017-09-26T00:49:21.972Z,1010.3
2017-09-26T00:50:23.585Z,1010.3
2017-09-26T00:51:25.191Z,1010.3
2017-09-26T00:52:26.805Z,1010.4
2017-09-26T00:53:28.417Z,1010.4
2017-09-26T00:54:30.030Z,1010.4
2017-09-26T00:55:31.645Z,1010.3
2017-09-26T00:56:33.256Z,1010.4
2017-09-26T00:57:34.872Z,1010.4
2017-09-26T00:58:36.477Z,1010.4
2017-09-26T00:59:38.094Z,1010.3
2017-09-26T01:00:39.699Z,1010.3
2017-09-26T01:01:41.316Z,1010.4
2017-09-26T01:02:42.924Z,1010.3
2017-09-26T01:03:44.535Z,1010.4
2017-09-26T01:04:46.143Z,1010.3
2017-09-26T01:05:47.756Z,1010.4
2017-09-26T01:06:49.364Z,1010.3
2017-09-26T01:07:50.979Z,1010.4
2017-09-26T01:08:52.587Z,1010.4
2017-09-26T01:09:54.196Z,1010.4
2017-09-26T01:10:55.805Z,1010.4
2017-09-26T01:11:57.418Z,1010.4
2017-09-26T01:12:59.025Z,1010.4
2017-09-26T01:14:00.638Z,1010.5
2017-09-26T01:15:02.249Z,1010.5
2017-09-26T01:16:03.861Z,1010.4
2017-09-26T01:17:05.468Z,1010.4
2017-09-26T01:18:07.082Z,1010.4
2017-09-26T01:19:08.689Z,1010.4
2017-09-26T01:20:10.302Z,1010.4
2017-09-26T01:21:11.907Z,1010.4
2017-09-26T01:22:13.519Z,1010.4
2017-09-26T01:23:15.148Z,1010.4
2017-09-26T01:24:16.761Z,1010.4
2017-09-26T01:25:18.381Z,1010.4
2017-09-26T01:26:19.993Z,1010.4
2017-09-26T01:27:21.610Z,1010.4
2017-09-26T01:28:23.220Z,1010.4
2017-09-26T01:29:24.843Z,1010.4
2017-09-26T01:30:26.454Z,1010.4
2017-09-26T01:31:28.076Z,1010.4
2017-09-26T01:32:29.694Z,1010.4
2017-09-26T01:33:31.310Z,1010.4
2017-09-26T01:34:32.923Z,1010.3
2017-09-26T01:35:34.540Z,1010.3
2017-09-26T01:36:36.159Z,1010.3
2017-09-26T01:37:37.774Z,1010.3
2017-09-26T01:38:39.393Z,1010.4
2017-09-26T01:39:41.007Z,1010.3
2017-09-26T01:40:42.623Z,1010.4
2017-09-26T01:41:44.235Z,1010.4
2017-09-26T01:42:45.855Z,1010.4
2017-09-26T01:43:47.468Z,1010.4
2017-09-26T01:44:49.090Z,1010.4
2017-09-26T01:45:50.703Z,1010.4
2017-09-26T01:46:52.324Z,1010.4
2017-09-26T01:47:53.933Z,1010.4
2017-09-26T01:48:55.552Z,1010.4
2017-09-26T01:49:57.165Z,1010.4
2017-09-26T01:50:58.782Z,1010.4
2017-09-26T01:52:00.399Z,1010.4
2017-09-26T01:53:02.015Z,1010.4
2017-09-26T01:54:03.634Z,1010.3
2017-09-26T01:55:05.240Z,1010.4
2017-09-26T01:56:06.860Z,1010.4
2017-09-26T01:57:08.481Z,1010.4
2017-09-26T01:58:10.091Z,1010.4
2017-09-26T01:59:11.707Z,1010.3
2017-09-26T02:00:13.326Z,1010.4
2017-09-26T02:01:14.944Z,1010.3
2017-09-26T02:02:16.557Z,1010.3
2017-09-26T02:03:18.166Z,1010.3
2017-09-26T02:04:19.790Z,1010.4
2017-09-26T02:05:21.408Z,1010.4
2017-09-26T02:06:23.021Z,1010.4
2017-09-26T02:07:24.634Z,1010.4
2017-09-26T02:08:26.257Z,1010.4
2017-09-26T02:09:27.868Z,1010.4
2017-09-26T02:10:29.488Z,1010.4
2017-09-26T02:11:31.105Z,1010.4
2017-09-26T02:12:32.715Z,1010.5
2017-09-26T02:13:34.330Z,1010.5
2017-09-26T02:14:35.953Z,1010.5
2017-09-26T02:15:37.569Z,1010.5
2017-09-26T02:16:39.183Z,1010.4
2017-09-26T02:17:40.803Z,1010.5
2017-09-26T02:18:42.415Z,1010.5
2017-09-26T02:19:44.029Z,1010.6
2017-09-26T02:20:45.649Z,1010.5
2017-09-26T02:21:47.266Z,1010.5
2017-09-26T02:22:48.881Z,1010.5
2017-09-26T02:23:50.491Z,1010.5
2017-09-26T02:24:52.113Z,1010.5
2017-09-26T02:25:53.731Z,1010.5
2017-09-26T02:26:55.343Z,1010.5
2017-09-26T02:27:56.968Z,1010.5
2017-09-26T02:28:58.589Z,1010.5
2017-09-26T02:30:00.211Z,1010.5
2017-09-26T02:31:01.821Z,1010.5
2017-09-26T02:32:03.434Z,1010.5
2017-09-26T02:33:05.053Z,1010.5
2017-09-26T02:34:06.665Z,1010.5
2017-09-26T02:35:08.288Z,1010.5
2017-09-26T02:36:09.900Z,1010.5
2017-09-26T02:37:11.525Z,1010.6
2017-09-26T02:38:13.134Z,1010.6
2017-09-26T02:39:14.752Z,1010.5
2017-09-26T02:40:16.366Z,1010.5
2017-09-26T02:41:17.983Z,1010.5
2017-09-26T02:42:19.596Z,1010.5
2017-09-26T02:43:21.217Z,1010.5
2017-09-26T02:44:22.830Z,1010.5
2017-09-26T02:45:24.448Z,1010.6
2017-09-26T02:46:26.057Z,1010.6
2017-09-26T02:47:27.685Z,1010.6
2017-09-26T02:48:29.289Z,1010.5
2017-09-26T02:49:30.910Z,1010.5
2017-09-26T02:50:32.531Z,1010.5
2017-09-26T02:51:34.144Z,1010.5
2017-09-26T02:52:35.761Z,1010.5
2017-09-26T02:53:37.369Z,1010.5
2017-09-26T02:54:38.992Z,1010.5
2017-09-26T02:55:40.600Z,1010.5
2017-09-26T02:56:42.222Z,1010.5
2017-09-26T02:57:43.833Z,1010.5
2017-09-26T02:58:45.454Z,1010.5
2017-09-26T02:59:47.063Z,1010.5
2017-09-26T03:00:48.682Z,1010.5
2017-09-26T03:01:50.299Z,1010.5
2017-09-26T03:02:51.920Z,1010.5
2017-09-26T03:03:53.533Z,1010.5
2017-09-26T03:04:55.154Z,1010.5
2017-09-26T03:05:56.769Z,1010.5
2017-09-26T03:06:58.388Z,1010.5
2017-09-26T03:08:00.000Z,1010.5
2017-09-26T03:09:01.613Z,1010.4
2017-09-26T03:10:03.232Z,1010.5
2017-09-26T03:11:04.854Z,1010.4
2017-09-26T03:12:06.465Z,1010.5
2017-09-26T03:13:08.079Z,1010.5
2017-09-26T03:14:09.698Z,1010.5
2017-09-26T03:15:11.315Z,1010.5
2017-09-26T03:16:12.924Z,1010.5
2017-09-26T03:17:14.538Z,1010.5
2017-09-26T03:18:16.158Z,1010.5
2017-09-26T03:19:17.774Z,1010.5
2017-09-26T03:20:19.388Z,1010.5
2017-09-26T03:21:21.000Z,1010.5
2017-09-26T03:22:22.618Z,1010.5
2017-09-26T03:23:24.233Z,1010.5
2017-09-26T03:24:25.880Z,1010.5
2017-09-26T03:25:27.499Z,1010.5
2017-09-26T03:26:29.112Z,1010.5
2017-09-26T03:27:30.727Z,1010.5
2017-09-26T03:28:32.344Z,1010.5
2017-09-26T03:29:33.963Z,1010.5
2017-09-26T03:30:35.575Z,1010.6
2017-09-26T03:31:37.190Z,1010.6
2017-09-26T03:32:38.802Z,1010.5
2017-09-26T03:33:40.413Z,1010.6
2017-09-26T03:34:42.037Z,1010.6
2017-09-26T03:35:43.654Z,1010.6
2017-09-26T03:36:45.272Z,1010.6
2017-09-26T03:37:46.889Z,1010.6
2017-09-26T03:38:48.498Z,1010.6
2017-09-26T03:39:50.110Z,1010.6
2017-09-26T03:40:51.735Z,1010.6
2017-09-26T03:41:53.347Z,1010.6
2017-09-26T03:42:54.970Z,1010.6
2017-09-26T03:43:56.578Z,1010.6
2017-09-26T03:44:58.197Z,1010.6
2017-09-26T03:45:59.809Z,1010.6
2017-09-26T03:47:01.430Z,1010.6
2017-09-26T03:48:03.046Z,1010.6
2017-09-26T03:49:04.666Z,1010.6
2017-09-26T03:50:06.281Z,1010.6
2017-09-26T03:51:07.889Z,1010.6
2017-09-26T03:52:09.510Z,1010.6
2017-09-26T03:53:11.128Z,1010.6
2017-09-26T03:54:12.745Z,1010.6
2017-09-26T03:55:14.367Z,1010.6
2017-09-26T03:56:15.987Z,1010.6
2017-09-26T03:57:17.602Z,1010.6
2017-09-26T03:58:19.219Z,1010.6
2017-09-26T03:59:20.830Z,1010.6
2017-09-26T04:00:22.447Z,1010.7
2017-09-26T04:01:24.060Z,1010.6
2017-09-26T04:02:25.679Z,1010.6
2017-09-26T04:03:27.293Z,1010.7
2017-09-26T04:04:28.903Z,1010.7
2017-09-26T04:05:30.518Z,1010.6
2017-09-26T04:06:32.137Z,1010.6
2017-09-26T04:07:33.762Z,1010.6
2017-09-26T04:08:35.368Z,1010.6
2017-09-26T04:09:36.986Z,1010.6
2017-09-26T04:10:38.601Z,1010.6
2017-09-26T04:11:40.216Z,1010.6
2017-09-26T04:12:41.827Z,1010.6
2017-09-26T04:13:43.445Z,1010.6
2017-09-26T04:14:45.065Z,1010.6
2017-09-26T04:15:46.676Z,1010.6
2017-09-26T04:16:48.292Z,1010.6
2017-09-26T04:17:49.910Z,1010.6
2017-09-26T04:18:51.529Z,1010.6
2017-09-26T04:19:53.140Z,1010.5
2017-09-26T04:20:54.762Z,1010.6
2017-09-26T04:21:56.378Z,1010.6
2017-09-26T04:22:57.993Z,1010.6
2017-09-26T04:23:59.607Z,1010.6
2017-09-26T04:25:01.227Z,1010.6
2017-09-26T04:26:02.840Z,1010.6
2017-09-26T04:27:04.460Z,1010.6
2017-09-26T04:28:06.070Z,1010.7
2017-09-26T04:29:07.686Z,1010.6
2017-09-26T04:30:09.306Z,1010.7
2017-09-26T04:31:10.926Z,1010.7
2017-09-26T04:32:12.537Z,1010.7
2017-09-26T04:33:14.149Z,1010.7
2017-09-26T04:34:15.769Z,1010.7
2017-09-26T04:35:17.384Z,1010.7
2017-09-26T04:36:18.995Z,1010.7
2017-09-26T04:37:20.608Z,1010.7
2017-09-26T04:38:22.222Z,1010.7
2017-09-26T04:39:23.842Z,1010.7
2017-09-26T04:40:25.453Z,1010.7
2017-09-26T04:41:27.067Z,1010.7
2017-09-26T04:42:28.684Z,1010.8
2017-09-26T04:43:30.302Z,1010.8
2017-09-26T04:44:31.918Z,1010.8
2017-09-26T04:45:33.529Z,1010.7
2017-09-26T04:46:35.150Z,1010.7
2017-09-26T04:47:36.762Z,1010.7
2017-09-26T04:48:38.382Z,1010.7
2017-09-26T04:49:39.997Z,1010.7
2017-09-26T04:50:41.612Z,1010.7
2017-09-26T04:51:43.223Z,1010.8
2017-09-26T04:52:44.844Z,1010.8
2017-09-26T04:53:46.456Z,1010.8
2017-09-26T04:54:48.070Z,1010.8
2017-09-26T04:55:49.721Z,1010.7
2017-09-26T04:56:51.337Z,1010.8
2017-09-26T04:57:52.950Z,1010.7
2017-09-26T04:58:54.569Z,1010.7
2017-09-26T04:59:56.181Z,1010.7
2017-09-26T05:00:57.799Z,1010.7
2017-09-26T05:01:59.416Z,1010.8
2017-09-26T05:03:01.027Z,1010.7
2017-09-26T05:04:02.648Z,1010.8
2017-09-26T05:05:04.258Z,1010.8
2017-09-26T05:06:05.878Z,1010.8
2017-09-26T05:07:07.488Z,1010.8
2017-09-26T05:08:09.109Z,1010.8
2017-09-26T05:09:10.721Z,1010.8
2017-09-26T05:10:12.342Z,1010.8
2017-09-26T05:11:13.960Z,1010.8
2017-09-26T05:12:15.576Z,1010.8
2017-09-26T05:13:17.190Z,1010.8
2017-09-26T05:14:18.820Z,1010.8
2017-09-26T05:15:20.434Z,1010.8
2017-09-26T05:16:22.053Z,1010.9
2017-09-26T05:17:23.670Z,1010.9
2017-09-26T05:18:25.282Z,1010.8
2017-09-26T05:19:26.905Z,1010.8
2017-09-26T05:20:28.521Z,1010.8
2017-09-26T05:21:30.139Z,1010.8
2017-09-26T05:22:31.753Z,1010.8
2017-09-26T05:23:33.372Z,1010.8
2017-09-26T05:24:34.990Z,1010.9
2017-09-26T05:25:36.602Z,1010.9
2017-09-26T05:26:38.221Z,1010.9
2017-09-26T05:27:39.831Z,1010.9
2017-09-26T05:28:41.457Z,1010.9
2017-09-26T05:29:43.072Z,1010.8
2017-09-26T05:30:44.689Z,1010.9
2017-09-26T05:31:46.309Z,1010.9
2017-09-26T05:32:47.928Z,1010.8
2017-09-26T05:33:49.556Z,1010.9
2017-09-26T05:34:51.179Z,1010.9
2017-09-26T05:35:52.798Z,1010.9
2017-09-26T05:36:54.421Z,1010.9
2017-09-26T05:37:56.032Z,1010.9
2017-09-26T05:38:57.664Z,1010.9
2017-09-26T05:39:59.271Z,1010.9
2017-09-26T05:41:00.902Z,1010.9
2017-09-26T05:42:02.534Z,1010.9
2017-09-26T05:43:04.160Z,1010.9
2017-09-26T05:44:05.777Z,1010.9
2017-09-26T05:45:07.430Z,1011.0
2017-09-26T05:46:09.046Z,1010.9
2017-09-26T05:47:10.666Z,1011.0
2017-09-26T05:48:12.281Z,1011.0
2017-09-26T05:49:13.904Z,1011.0
2017-09-26T05:50:15.546Z,1010.9
2017-09-26T05:51:17.174Z,1011.0
2017-09-26T05:52:18.791Z,1011.0
2017-09-26T05:53:20.408Z,1011.0
2017-09-26T05:54:22.027Z,1011.0
2017-09-26T05:55:23.963Z,1011.0
2017-09-26T05:56:25.587Z,1011.0
2017-09-26T05:57:27.444Z,1010.9
2017-09-26T05:58:29.035Z,1011.0
2017-09-26T05:59:30.655Z,1011.0
2017-09-26T06:00:32.271Z,1010.9
2017-09-26T06:01:33.886Z,1010.9
2017-09-26T06:02:35.510Z,1010.9
2017-09-26T06:03:37.137Z,1010.9
2017-09-26T06:04:38.754Z,1010.9
2017-09-26T06:05:40.373Z,1011.0
2017-09-26T06:06:41.995Z,1010.9
2017-09-26T06:07:43.616Z,1010.9
2017-09-26T06:08:45.230Z,1010.9
2017-09-26T06:09:46.849Z,1010.9
2017-09-26T06:10:48.476Z,1011.0
2017-09-26T06:11:50.101Z,1010.9
2017-09-26T06:12:51.716Z,1011.0
2017-09-26T06:13:53.331Z,1011.0
2017-09-26T06:14:54.954Z,1011.0
2017-09-26T06:15:56.574Z,1011.0
2017-09-26T06:16:58.190Z,1011.0
2017-09-26T06:18:00.043Z,1011.0
2017-09-26T06:19:01.674Z,1011.0
2017-09-26T06:20:03.293Z,1011.0
2017-09-26T06:21:04.912Z,1011.0
2017-09-26T06:22:06.528Z,1011.0
2017-09-26T06:23:08.158Z,1011.1
2017-09-26T06:24:09.787Z,1011.1
2017-09-26T06:25:11.412Z,1011.1
2017-09-26T06:26:13.126Z,1011.1
2017-09-26T06:27:14.807Z,1011.1
2017-09-26T06:28:16.433Z,1011.1
2017-09-26T06:29:18.073Z,1011.1
2017-09-26T06:30:19.687Z,1011.1
2017-09-26T06:31:21.313Z,1011.1
2017-09-26T06:32:22.930Z,1011.1
2017-09-26T06:33:24.562Z,1011.1
2017-09-26T06:34:26.183Z,1011.1
2017-09-26T06:35:27.837Z,1011.1
2017-09-26T06:36:29.451Z,1011.1
2017-09-26T06:37:31.078Z,1011.1
2017-09-26T06:38:32.694Z,1011.2
2017-09-26T06:39:34.316Z,1011.2
2017-09-26T06:40:35.933Z,1011.2
2017-09-26T06:41:37.554Z,1011.2
2017-09-26T06:42:39.182Z,1011.2
2017-09-26T06:43:40.798Z,1011.3
2017-09-26T06:44:42.426Z,1011.2
2017-09-26T06:45:44.059Z,1011.3
2017-09-26T06:46:45.686Z,1011.3
2017-09-26T06:47:47.303Z,1011.3
2017-09-26T06:48:49.359Z,1011.3
2017-09-26T06:49:52.208Z,1011.3
2017-09-26T06:50:53.861Z,1011.3
2017-09-26T06:51:55.485Z,1011.3
2017-09-26T06:52:57.108Z,1011.3
2017-09-26T06:53:58.725Z,1011.3
2017-09-26T06:55:00.425Z,1011.3
2017-09-26T06:56:02.034Z,1011.4
2017-09-26T06:57:03.658Z,1011.4
2017-09-26T06:58:05.325Z,1011.3
2017-09-26T06:59:06.939Z,1011.3
2017-09-26T07:00:08.582Z,1011.4
2017-09-26T07:01:10.203Z,1011.3
2017-09-26T07:02:11.821Z,1011.4
2017-09-26T07:03:13.445Z,1011.4
2017-09-26T07:04:15.066Z,1011.4
2017-09-26T07:05:16.681Z,1011.4
2017-09-26T07:06:18.308Z,1011.3
2017-09-26T07:07:19.929Z,1011.4
2017-09-26T07:08:21.546Z,1011.4
2017-09-26T07:09:23.169Z,1011.4
2017-09-26T07:10:24.795Z,1011.4
2017-09-26T07:11:26.419Z,1011.4
2017-09-26T07:12:28.038Z,1011.4
2017-09-26T07:13:29.661Z,1011.4
2017-09-26T07:14:31.278Z,1011.5
2017-09-26T07:15:32.900Z,1011.4
2017-09-26T07:16:34.528Z,1011.5
2017-09-26T07:17:36.153Z,1011.4
2017-09-26T07:18:37.771Z,1011.5
2017-09-26T07:19:39.396Z,1011.4
2017-09-26T07:20:41.014Z,1011.5
2017-09-26T07:21:42.631Z,1011.5
2017-09-26T07:22:44.258Z,1011.5
2017-09-26T07:23:45.875Z,1011.5
2017-09-26T07:24:47.502Z,1011.5
2017-09-26T07:25:49.116Z,1011.5
2017-09-26T07:26:50.740Z,1011.5
2017-09-26T07:27:52.355Z,1011.5
2017-09-26T07:28:53.981Z,1011.5
2017-09-26T07:29:55.600Z,1011.6
2017-09-26T07:30:57.228Z,1011.5
2017-09-26T07:31:58.845Z,1011.6
2017-09-26T07:33:00.465Z,1011.6
2017-09-26T07:34:02.078Z,1011.6
2017-09-26T07:35:03.706Z,1011.6
2017-09-26T07:36:05.354Z,1011.6
2017-09-26T07:37:07.037Z,1011.6
2017-09-26T07:38:08.664Z,1011.6
2017-09-26T07:39:10.281Z,1011.6
2017-09-26T07:40:11.904Z,1011.6
2017-09-26T07:41:13.520Z,1011.6
2017-09-26T07:42:15.146Z,1011.6
2017-09-26T07:43:16.764Z,1011.6
2017-09-26T07:44:18.392Z,1011.6
2017-09-26T07:45:20.008Z,1011.6
2017-09-26T07:46:21.633Z,1011.6
2017-09-26T07:47:23.250Z,1011.6
2017-09-26T07:48:25.162Z,1011.6
2017-09-26T07:49:26.779Z,1011.6
2017-09-26T07:50:28.406Z,1011.6
2017-09-26T07:51:30.021Z,1011.7
2017-09-26T07:52:31.648Z,1011.7
2017-09-26T07:53:33.268Z,1011.7
2017-09-26T07:54:34.894Z,1011.7
2017-09-26T07:55:36.513Z,1011.7
2017-09-26T07:56:38.136Z,1011.7
2017-09-26T07:57:39.754Z,1011.7
2017-09-26T07:58:41.379Z,1011.7
2017-09-26T07:59:42.998Z,1011.7
2017-09-26T08:00:44.623Z,1011.7
2017-09-26T08:01:46.247Z,1011.7
2017-09-26T08:02:47.865Z,1011.8
2017-09-26T08:03:49.490Z,1011.7
2017-09-26T08:04:51.116Z,1011.8
2017-09-26T08:05:52.733Z,1011.8
2017-09-26T08:06:54.353Z,1011.8
2017-09-26T08:07:55.986Z,1011.7
2017-09-26T08:08:57.610Z,1011.7
2017-09-26T08:09:59.230Z,1011.7
2017-09-26T08:11:00.849Z,1011.7
2017-09-26T08:12:02.471Z,1011.7
2017-09-26T08:13:04.097Z,1011.7
2017-09-26T08:14:05.716Z,1011.7
2017-09-26T08:15:07.339Z,1011.7
2017-09-26T08:16:08.964Z,1011.7
2017-09-26T08:17:20.380Z,1011.8
2017-09-26T08:18:21.959Z,1011.7
2017-09-26T08:19:23.576Z,1011.7
2017-09-26T08:20:25.205Z,1011.7
2017-09-26T08:21:26.827Z,1011.8
2017-09-26T08:22:28.450Z,1011.8
2017-09-26T08:23:30.073Z,1011.8
2017-09-26T08:24:31.700Z,1011.8
2017-09-26T08:25:33.325Z,1011.8
2017-09-26T08:26:34.979Z,1011.8
2017-09-26T08:27:36.569Z,1011.8
2017-09-26T08:28:38.191Z,1011.8
2017-09-26T08:29:39.820Z,1011.8
2017-09-26T08:30:41.438Z,1011.8
2017-09-26T08:31:43.057Z,1011.8
2017-09-26T08:32:44.686Z,1011.7
2017-09-26T08:33:46.311Z,1011.7
2017-09-26T08:34:47.936Z,1011.8
2017-09-26T08:35:49.561Z,1011.7
2017-09-26T08:36:51.186Z,1011.8
2017-09-26T08:37:52.805Z,1011.8
2017-09-26T08:38:54.429Z,1011.8
2017-09-26T08:39:56.046Z,1011.8
2017-09-26T08:40:57.676Z,1011.8
2017-09-26T08:41:59.296Z,1011.8
2017-09-26T08:43:00.925Z,1011.8
2017-09-26T08:44:02.550Z,1011.8
2017-09-26T08:45:04.172Z,1011.8
2017-09-26T08:46:05.790Z,1011.7
2017-09-26T08:47:07.421Z,1011.7
2017-09-26T08:48:09.047Z,1011.7
2017-09-26T08:49:10.671Z,1011.8
2017-09-26T08:50:12.293Z,1011.7
2017-09-26T08:51:13.919Z,1011.8
2017-09-26T08:52:15.543Z,1011.8
2017-09-26T08:53:17.163Z,1011.8
2017-09-26T08:54:18.794Z,1011.7
2017-09-26T08:55:20.413Z,1011.8
2017-09-26T08:56:22.048Z,1011.8
2017-09-26T08:57:23.671Z,1011.8
2017-09-26T08:58:25.302Z,1011.8
2017-09-26T08:59:26.921Z,1011.8
2017-09-26T09:00:28.552Z,1011.8
2017-09-26T09:01:30.170Z,1011.9
2017-09-26T09:02:31.797Z,1011.8
2017-09-26T09:03:33.419Z,1011.8
2017-09-26T09:04:35.042Z,1012.0
2017-09-26T09:05:36.681Z,1011.8
2017-09-26T09:06:38.300Z,1011.8
2017-09-26T09:07:39.930Z,1011.8
2017-09-26T09:08:41.553Z,1011.8
2017-09-26T09:09:43.188Z,1011.8
2017-09-26T09:10:44.814Z,1011.9
2017-09-26T09:11:46.436Z,1011.8
2017-09-26T09:12:48.061Z,1011.8
2017-09-26T09:13:49.695Z,1011.8
2017-09-26T09:14:51.320Z,1011.9
2017-09-26T09:15:52.946Z,1011.8
2017-09-26T09:16:54.583Z,1011.8
2017-09-26T09:17:56.206Z,1011.8
2017-09-26T09:18:57.830Z,1011.8
2017-09-26T09:19:59.462Z,1011.8
2017-09-26T09:21:01.101Z,1011.8
2017-09-26T09:22:02.732Z,1011.8
2017-09-26T09:23:04.360Z,1011.8
2017-09-26T09:24:05.986Z,1011.8
2017-09-26T09:25:07.615Z,1011.8
2017-09-26T09:26:09.249Z,1011.8
2017-09-26T09:27:10.878Z,1011.8
2017-09-26T09:28:12.502Z,1011.8
2017-09-26T09:29:14.130Z,1011.8
2017-09-26T09:30:15.763Z,1011.9
2017-09-26T09:31:17.392Z,1011.8
2017-09-26T09:32:19.017Z,1011.8
2017-09-26T09:33:20.649Z,1011.8
2017-09-26T09:34:22.278Z,1011.8
2017-09-26T09:35:23.904Z,1011.8
2017-09-26T09:36:25.528Z,1011.9
2017-09-26T09:37:27.158Z,1011.8
2017-09-26T09:38:28.783Z,1011.8
2017-09-26T09:39:30.415Z,1011.8
2017-09-26T09:40:32.043Z,1011.9
2017-09-26T09:41:33.674Z,1011.9
2017-09-26T09:42:35.305Z,1011.9
2017-09-26T09:43:36.929Z,1011.9
2017-09-26T09:44:38.566Z,1011.9
2017-09-26T09:45:40.193Z,1011.9
2017-09-26T09:46:41.843Z,1011.9
2017-09-26T09:47:43.478Z,1011.9
2017-09-26T09:48:45.123Z,1011.9
2017-09-26T09:49:46.761Z,1011.9
2017-09-26T09:50:48.409Z,1011.9
2017-09-26T09:51:50.046Z,1011.9
2017-09-26T09:52:51.743Z,1011.9
2017-09-26T09:53:53.343Z,1011.9
2017-09-26T09:54:54.980Z,1011.9
2017-09-26T09:55:56.620Z,1012.0
2017-09-26T09:56:58.273Z,1011.9
2017-09-26T09:57:59.933Z,1011.9
2017-09-26T09:59:01.575Z,1012.0
2017-09-26T10:00:03.259Z,1012.0
2017-09-26T10:01:04.899Z,1012.0
2017-09-26T10:02:06.542Z,1012.0
2017-09-26T10:03:08.189Z,1012.0
2017-09-26T10:04:09.836Z,1011.9
2017-09-26T10:05:11.475Z,1011.8
2017-09-26T10:06:14.693Z,1011.9
2017-09-26T10:07:17.998Z,1011.9
2017-09-26T10:08:22.163Z,1011.8
2017-09-26T10:09:24.971Z,1011.9
2017-09-26T10:10:28.796Z,1011.8
2017-09-26T10:11:32.299Z,1011.9
2017-09-26T10:12:36.730Z,1011.9
2017-09-26T10:13:41.330Z,1011.9
2017-09-26T10:14:46.386Z,1011.9
2017-09-26T10:15:52.388Z,1012.0
2017-09-26T10:16:53.169Z,1011.9
2017-09-26T10:17:54.858Z,1011.9
2017-09-26T10:18:56.462Z,1011.9
2017-09-26T10:19:58.103Z,1011.9
2017-09-26T10:20:59.745Z,1011.9
2017-09-26T10:22:01.390Z,1012.0
2017-09-26T10:23:03.039Z,1011.9
2017-09-26T10:24:04.678Z,1011.9
2017-09-26T10:25:06.332Z,1011.9
2017-09-26T10:26:07.994Z,1011.9
2017-09-26T10:27:09.642Z,1011.9
2017-09-26T10:28:11.291Z,1011.9
2017-09-26T10:29:12.982Z,1011.9
2017-09-26T10:30:14.630Z,1011.9
2017-09-26T10:31:16.270Z,1011.9
2017-09-26T10:32:17.922Z,1011.9
2017-09-26T10:33:19.582Z,1011.9
2017-09-26T10:34:21.215Z,1011.9
2017-09-26T10:35:22.845Z,1011.9
2017-09-26T10:36:24.502Z,1011.9
2017-09-26T10:37:26.139Z,1011.9
2017-09-26T10:38:27.778Z,1011.9
2017-09-26T10:39:29.424Z,1011.9
2017-09-26T10:40:31.059Z,1011.8
2017-09-26T10:41:32.691Z,1011.8
2017-09-26T10:42:34.340Z,1011.8
2017-09-26T10:43:35.978Z,1011.8
2017-09-26T10:44:37.618Z,1011.8
2017-09-26T10:45:39.254Z,1011.8
2017-09-26T10:46:40.902Z,1011.9
2017-09-26T10:47:42.545Z,1011.8
2017-09-26T10:48:44.180Z,1011.9
2017-09-26T10:49:45.812Z,1011.8
2017-09-26T10:50:47.467Z,1011.9
2017-09-26T10:51:49.108Z,1011.8
2017-09-26T10:52:50.744Z,1011.8
2017-09-26T10:53:52.382Z,1011.8
2017-09-26T10:54:54.017Z,1011.8
2017-09-26T10:55:55.661Z,1011.8
2017-09-26T10:56:57.881Z,1011.9
2017-09-26T10:57:59.531Z,1011.9
2017-09-26T10:59:01.168Z,1011.9
2017-09-26T11:00:02.805Z,1011.9
2017-09-26T11:01:04.438Z,1011.9
2017-09-26T11:02:06.084Z,1011.9
2017-09-26T11:03:07.730Z,1011.9
2017-09-26T11:04:09.379Z,1011.9
2017-09-26T11:05:11.045Z,1011.9
2017-09-26T11:06:12.688Z,1011.9
2017-09-26T11:07:14.325Z,1011.9
2017-09-26T11:08:15.962Z,1011.9
2017-09-26T11:09:17.607Z,1011.9
2017-09-26T11:10:19.243Z,1011.9
2017-09-26T11:11:20.921Z,1011.9
2017-09-26T11:12:22.556Z,1011.9
2017-09-26T11:13:24.218Z,1011.9
2017-09-26T11:14:25.850Z,1011.9
2017-09-26T11:15:27.493Z,1011.9
2017-09-26T11:16:29.132Z,1011.9
2017-09-26T11:17:30.772Z,1011.9
2017-09-26T11:18:32.421Z,1011.9
2017-09-26T11:19:34.078Z,1011.9
2017-09-26T11:20:35.727Z,1011.9
2017-09-26T11:21:37.373Z,1011.9
2017-09-26T11:22:39.011Z,1011.8
2017-09-26T11:23:40.676Z,1011.8
2017-09-26T11:24:42.339Z,1011.9
2017-09-26T11:25:43.977Z,1011.9
2017-09-26T11:26:45.633Z,1011.8
2017-09-26T11:27:47.285Z,1011.9
2017-09-26T11:28:48.955Z,1011.8
2017-09-26T11:29:50.600Z,1011.9
2017-09-26T11:30:52.248Z,1011.8
2017-09-26T11:31:53.889Z,1011.8
2017-09-26T11:32:55.553Z,1011.8
2017-09-26T11:33:57.191Z,1011.8
2017-09-26T11:34:58.827Z,1011.8
2017-09-26T11:36:00.473Z,1011.8
2017-09-26T11:37:02.161Z,1011.8
2017-09-26T11:38:03.808Z,1011.8
2017-09-26T11:39:05.442Z,1011.8
2017-09-26T11:40:07.092Z,1011.8
2017-09-26T11:41:08.733Z,1011.8
2017-09-26T11:42:10.373Z,1011.9
2017-09-26T11:43:12.010Z,1011.9
2017-09-26T11:44:13.671Z,1011.9
2017-09-26T11:45:15.302Z,1011.9
2017-09-26T11:46:16.931Z,1011.9
2017-09-26T11:47:18.571Z,1011.9
2017-09-26T11:48:20.216Z,1011.9
2017-09-26T11:49:21.862Z,1011.9
2017-09-26T11:50:23.494Z,1011.9
2017-09-26T11:51:25.144Z,1011.9
2017-09-26T11:52:26.779Z,1011.9
2017-09-26T11:53:28.420Z,1011.9
2017-09-26T11:54:30.082Z,1011.9
2017-09-26T11:55:31.709Z,1011.9
2017-09-26T11:56:33.339Z,1011.9
2017-09-26T11:57:34.978Z,1011.9
2017-09-26T11:58:36.607Z,1011.9
2017-09-26T11:59:38.244Z,1011.9
2017-09-26T12:00:39.868Z,1011.8
2017-09-26T12:01:41.507Z,1011.8
2017-09-26T12:02:43.161Z,1011.9
2017-09-26T12:03:44.821Z,1011.8
2017-09-26T12:04:46.462Z,1011.8
2017-09-26T12:05:48.111Z,1011.8
2017-09-26T12:06:49.758Z,1011.8
2017-09-26T12:07:51.402Z,1011.8
2017-09-26T12:08:53.128Z,1011.8
2017-09-26T12:09:54.770Z,1011.8
2017-09-26T12:10:56.409Z,1011.8
2017-09-26T12:11:58.045Z,1011.7
2017-09-26T12:12:59.690Z,1011.7
2017-09-26T12:14:01.315Z,1011.8
2017-09-26T12:15:02.988Z,1011.7
2017-09-26T12:16:04.615Z,1011.7
2017-09-26T12:17:06.250Z,1011.7
2017-09-26T12:18:07.888Z,1011.7
2017-09-26T12:19:09.603Z,1011.7
2017-09-26T12:20:11.235Z,1011.7
2017-09-26T12:21:13.228Z,1011.7
2017-09-26T12:22:14.864Z,1011.7
2017-09-26T12:23:16.512Z,1011.7
2017-09-26T12:24:18.158Z,1011.8
2017-09-26T12:25:19.786Z,1011.9
2017-09-26T12:26:21.469Z,1011.5
2017-09-26T12:27:23.094Z,1011.5
2017-09-26T12:28:24.736Z,1011.5
2017-09-26T12:29:26.357Z,1011.5
2017-09-26T12:30:28.030Z,1011.5
2017-09-26T12:31:29.659Z,1011.6
2017-09-26T12:32:31.293Z,1011.5
2017-09-26T12:33:32.953Z,1011.5
2017-09-26T12:34:34.586Z,1011.5
2017-09-26T12:35:36.354Z,1011.4
2017-09-26T12:36:39.691Z,1011.5
2017-09-26T12:37:41.286Z,1011.4
2017-09-26T12:38:42.912Z,1011.5
2017-09-26T12:39:44.547Z,1011.5
2017-09-26T12:40:46.187Z,1011.5
2017-09-26T12:41:47.820Z,1011.4
2017-09-26T12:42:49.442Z,1011.4
2017-09-26T12:43:54.026Z,1011.4
2017-09-26T12:44:55.630Z,1011.3
2017-09-26T12:45:57.252Z,1011.3
2017-09-26T12:46:58.877Z,1011.3
2017-09-26T12:48:00.510Z,1011.3
2017-09-26T12:49:02.143Z,1011.3